Airfield :
LOGIN :

Register | Disclaimer

   EN    FR    IT 

 










Legend :    VFR   Marginal VFR   IFR   Intensive IFR   Very Intensive IFR
Visi :
Ceiling :
>= 8 km
>= 3000ft
5 to 8 km
1000 to 3000 ft
1500m to 5 km
500 to 1000 ft
800 to 1500m
200 to 500 ft
< 800m
< 200 ft
Symbols :   Thunderstorms  Fog  Heavy snow  Heavy precipitations  Wind > 20 kt
SIGMETs :     Misc.  Thunderstorms  Icing  Turbulence  Mountain Waves  Volcanic Ashes







- Airport Elevation : 2001 ft
- IATA code : MAD


LEMD - Madrid

CURRENT METAR :
  • 252100Z 18005KT 9999 -RA FEW020 BKN030 BKN050 08/06 Q1014 R88/19//95 TEMPO RA

EXPIRED METARs :
  • 252030Z 15007KT 130V200 9999 -RA FEW020 BKN030 BKN050 08/06 Q1013 R88/19//95 NOSIG
  • 252022Z 16008KT 130V200 9999 RA SCT030 BKN055 08/06 Q1013 NOSIG
  • 252000Z VRB02KT 9999 SCT030 BKN055 08/05 Q1013 NOSIG
  • 251930Z VRB02KT 9999 SCT030 BKN055 08/05 Q1013 NOSIG
  • 251900Z 16004KT 120V210 9999 BKN036 BKN055 08/05 Q1013 NOSIG
  • 251830Z 16007KT 9999 BKN035 OVC045 08/05 Q1013 NOSIG

TAF AMD TAF LEMD
Valid from the 25 at 19:00 until the 27 at 00:00 UTC


251950Z 2519/2624 17007KT 9999 BKN030 BKN060 TX15/2615Z TN05/2606Z
TEMPO 2519/2522 4000 RA BKN012
PROB40
TEMPO 2609/2612 3000 RADZ BKN008
No reported NOTAMs for that airfield.
1 SIGMET reported for the Madrid FIR (LECM) :
 
Embedded thunderstorms
LECM SIGMET 8 VALID 251929/252100 LEVA
LECM MADRID FIR/UIR EMBD TS FCST W OF LINE N4040 W006 - N3950 W00610 TOP FL220 MOV N NC=



MET'MAP, your aeronautical weather chart ! - Copyright ORBIFLY December 2007 - Disclaimer

ORBIFLY MET'MAP TEAM :

Programming & Development : Alexandra Zaïnal
Concept & Development : Baudouin d'Aumeries
Co-Development & Prog : Marc-Olivier Méhu
Technical & hardware support : Manuel Goepfert

Contact : metmap@orbifly.com




SOURCES & CREDITS :

   NOAA